createdAt,value
2017-04-20T00:00:00.933Z,2.75
2017-04-20T00:02:14.641Z,2.56
2017-04-20T00:02:55.518Z,2.57
2017-04-20T00:03:36.388Z,2.61
2017-04-20T00:04:17.260Z,2.47
2017-04-20T00:04:58.138Z,2.5
2017-04-20T00:05:39.021Z,2.65
2017-04-20T00:06:19.908Z,2.54
2017-04-20T00:07:00.779Z,2.61
2017-04-20T00:07:41.653Z,2.56
2017-04-20T00:08:22.524Z,2.47
2017-04-20T00:09:03.407Z,2.46
2017-04-20T00:09:44.286Z,2.42
2017-04-20T00:10:25.157Z,2.53
2017-04-20T00:11:06.042Z,2.28
2017-04-20T00:11:46.897Z,2.33
2017-04-20T00:12:27.772Z,2.33
2017-04-20T00:13:08.658Z,2.22
2017-04-20T00:13:49.540Z,2.31
2017-04-20T00:14:30.409Z,2.29
2017-04-20T00:15:11.278Z,2.32
2017-04-20T00:15:52.156Z,2.35
2017-04-20T00:16:33.023Z,2.42
2017-04-20T00:17:13.895Z,2.35
2017-04-20T00:17:54.763Z,2.18
2017-04-20T00:18:35.642Z,2.29
2017-04-20T00:19:16.509Z,2.33
2017-04-20T00:19:57.387Z,2.46
2017-04-20T00:20:38.259Z,2.49
2017-04-20T00:21:19.130Z,2.35
2017-04-20T00:21:59.997Z,2.42
2017-04-20T00:22:40.883Z,2.38
2017-04-20T00:23:21.769Z,2.47
2017-04-20T00:24:02.639Z,2.33
2017-04-20T00:24:43.515Z,2.31
2017-04-20T00:25:24.387Z,2.32
2017-04-20T00:26:05.265Z,2.26
2017-04-20T00:26:46.151Z,2.29
2017-04-20T00:27:27.019Z,2.31
2017-04-20T00:28:07.888Z,2.18
2017-04-20T00:28:48.763Z,2.22
2017-04-20T00:29:29.629Z,2.25
2017-04-20T00:30:10.496Z,2.24
2017-04-20T00:30:51.378Z,2.31
2017-04-20T00:31:32.258Z,2.32
2017-04-20T00:32:13.135Z,2.15
2017-04-20T00:32:54.009Z,2.31
2017-04-20T00:33:34.873Z,2.26
2017-04-20T00:34:15.742Z,2.35
2017-04-20T00:34:56.617Z,2.46
2017-04-20T00:35:37.542Z,2.32
2017-04-20T00:36:18.419Z,2.42
2017-04-20T00:36:59.286Z,2.35
2017-04-20T00:37:40.161Z,2.39
2017-04-20T00:38:21.029Z,2.36
2017-04-20T00:39:01.901Z,2.36
2017-04-20T00:39:42.775Z,2.33
2017-04-20T00:40:23.640Z,2.29
2017-04-20T00:41:04.524Z,2.35
2017-04-20T00:41:45.413Z,2.38
2017-04-20T00:42:26.278Z,2.29
2017-04-20T00:43:07.143Z,2.38
2017-04-20T00:43:48.015Z,2.44
2017-04-20T00:44:28.877Z,2.29
2017-04-20T00:45:09.740Z,2.38
2017-04-20T00:45:50.620Z,2.35
2017-04-20T00:46:31.509Z,2.35
2017-04-20T00:47:12.366Z,2.38
2017-04-20T00:47:53.241Z,2.39
2017-04-20T00:48:34.117Z,2.39
2017-04-20T00:49:14.995Z,2.32
2017-04-20T00:49:55.873Z,2.32
2017-04-20T00:50:36.771Z,2.36
2017-04-20T00:51:17.656Z,2.29
2017-04-20T00:51:58.542Z,2.29
2017-04-20T00:53:16.403Z,2.38
2017-04-20T00:53:57.298Z,2.32
2017-04-20T00:54:38.363Z,2.28
2017-04-20T00:55:19.272Z,2.13
2017-04-20T00:56:00.155Z,2.25
2017-04-20T00:56:41.079Z,2.22
2017-04-20T00:57:21.943Z,2.15
2017-04-20T00:58:02.814Z,2.26
2017-04-20T00:58:43.707Z,2.22
2017-04-20T00:59:24.586Z,2.28
2017-04-20T01:00:05.457Z,2.31
2017-04-20T01:00:46.337Z,2.29
2017-04-20T01:01:27.214Z,2.33
2017-04-20T01:02:08.090Z,2.17
2017-04-20T01:02:48.967Z,2.13
2017-04-20T01:03:29.834Z,2.13
2017-04-20T01:04:10.765Z,2.1
2017-04-20T01:04:51.635Z,2.17
2017-04-20T01:05:32.513Z,2.14
2017-04-20T01:06:13.378Z,2.28
2017-04-20T01:06:54.257Z,2.26
2017-04-20T01:07:35.130Z,2.11
2017-04-20T01:08:16.015Z,2.11
2017-04-20T01:08:56.885Z,2.07
2017-04-20T01:09:37.755Z,2.13
2017-04-20T01:10:18.627Z,2.08
2017-04-20T01:10:59.510Z,2
2017-04-20T01:11:40.395Z,2.15
2017-04-20T01:12:21.270Z,2.11
2017-04-20T01:13:02.141Z,2.17
2017-04-20T01:13:43.027Z,2
2017-04-20T01:14:23.905Z,2.1
2017-04-20T01:15:04.781Z,2.02
2017-04-20T01:15:45.656Z,1.92
2017-04-20T01:16:26.520Z,1.99
2017-04-20T01:17:07.393Z,1.91
2017-04-20T01:17:48.253Z,2
2017-04-20T01:18:29.131Z,1.94
2017-04-20T01:19:09.998Z,1.88
2017-04-20T01:19:50.870Z,1.88
2017-04-20T01:20:31.737Z,1.87
2017-04-20T01:21:12.622Z,1.84
2017-04-20T01:21:53.518Z,1.94
2017-04-20T01:22:34.416Z,1.91
2017-04-20T01:23:15.295Z,1.76
2017-04-20T01:23:56.166Z,1.85
2017-04-20T01:24:37.045Z,1.73
2017-04-20T01:25:17.922Z,1.76
2017-04-20T01:25:58.835Z,1.74
2017-04-20T01:26:39.713Z,1.77
2017-04-20T01:27:20.569Z,1.8
2017-04-20T01:28:01.435Z,1.76
2017-04-20T01:28:42.314Z,1.77
2017-04-20T01:29:23.185Z,1.7
2017-04-20T01:30:04.098Z,1.67
2017-04-20T01:30:45.006Z,1.74
2017-04-20T01:31:25.848Z,1.7
2017-04-20T01:32:06.724Z,1.77
2017-04-20T01:32:47.602Z,1.77
2017-04-20T01:33:28.484Z,1.76
2017-04-20T01:34:09.359Z,1.73
2017-04-20T01:34:50.240Z,1.73
2017-04-20T01:35:31.123Z,1.76
2017-04-20T01:36:12.000Z,1.73
2017-04-20T01:36:52.867Z,1.63
2017-04-20T01:37:33.747Z,1.58
2017-04-20T01:38:14.617Z,1.71
2017-04-20T01:38:55.504Z,1.71
2017-04-20T01:39:36.381Z,1.67
2017-04-20T01:40:17.261Z,1.71
2017-04-20T01:40:58.132Z,1.74
2017-04-20T01:41:39.003Z,1.71
2017-04-20T01:42:19.880Z,1.68
2017-04-20T01:43:00.748Z,1.7
2017-04-20T01:43:41.628Z,1.71
2017-04-20T01:44:22.503Z,1.76
2017-04-20T01:45:03.370Z,1.73
2017-04-20T01:45:44.249Z,1.78
2017-04-20T01:46:25.120Z,1.66
2017-04-20T01:47:06.003Z,1.76
2017-04-20T01:47:46.890Z,1.71
2017-04-20T01:48:27.765Z,1.76
2017-04-20T01:49:08.635Z,1.81
2017-04-20T01:49:49.508Z,1.84
2017-04-20T01:50:30.380Z,1.87
2017-04-20T01:51:11.303Z,1.92
2017-04-20T01:51:52.180Z,1.92
2017-04-20T01:52:33.054Z,1.81
2017-04-20T01:53:13.927Z,1.78
2017-04-20T01:53:54.794Z,1.73
2017-04-20T01:54:35.761Z,1.62
2017-04-20T01:55:16.573Z,1.67
2017-04-20T01:55:57.439Z,1.59
2017-04-20T01:56:38.311Z,1.56
2017-04-20T01:57:19.181Z,1.62
2017-04-20T01:58:00.051Z,1.56
2017-04-20T01:58:40.926Z,1.58
2017-04-20T01:59:21.808Z,1.62
2017-04-20T02:00:02.671Z,1.63
2017-04-20T02:00:43.541Z,1.62
2017-04-20T02:01:24.400Z,1.59
2017-04-20T02:02:05.259Z,1.53
2017-04-20T02:02:46.137Z,1.59
2017-04-20T02:03:27.004Z,1.59
2017-04-20T02:04:07.884Z,1.66
2017-04-20T02:04:48.748Z,1.6
2017-04-20T02:05:29.613Z,1.58
2017-04-20T02:06:10.506Z,1.63
2017-04-20T02:06:51.980Z,1.6
2017-04-20T02:07:32.850Z,1.63
2017-04-20T02:08:13.723Z,1.58
2017-04-20T02:08:54.596Z,1.58
2017-04-20T02:09:35.477Z,1.58
2017-04-20T02:10:16.353Z,1.55
2017-04-20T02:10:57.219Z,1.53
2017-04-20T02:11:38.095Z,1.42
2017-04-20T02:12:18.965Z,1.48
2017-04-20T02:12:59.852Z,1.58
2017-04-20T02:13:40.721Z,1.44
2017-04-20T02:14:21.581Z,1.48
2017-04-20T02:15:02.455Z,1.52
2017-04-20T02:15:43.333Z,1.41
2017-04-20T02:16:24.201Z,1.44
2017-04-20T02:17:05.057Z,1.44
2017-04-20T02:17:45.930Z,1.5
2017-04-20T02:18:26.804Z,1.52
2017-04-20T02:19:08.261Z,1.44
2017-04-20T02:19:49.137Z,1.59
2017-04-20T02:20:30.027Z,1.56
2017-04-20T02:21:10.893Z,1.56
2017-04-20T02:21:51.803Z,1.5
2017-04-20T02:22:32.667Z,1.6
2017-04-20T02:23:13.544Z,1.5
2017-04-20T02:23:54.406Z,1.44
2017-04-20T02:24:35.285Z,1.45
2017-04-20T02:25:16.175Z,1.45
2017-04-20T02:25:57.029Z,1.28
2017-04-20T02:26:37.916Z,1.42
2017-04-20T02:27:18.789Z,1.53
2017-04-20T02:27:59.651Z,1.45
2017-04-20T02:28:40.547Z,1.42
2017-04-20T02:29:21.688Z,1.48
2017-04-20T02:30:02.566Z,1.49
2017-04-20T02:30:43.451Z,1.3
2017-04-20T02:31:24.319Z,1.48
2017-04-20T02:32:05.192Z,1.37
2017-04-20T02:32:46.080Z,1.32
2017-04-20T02:33:26.925Z,1.24
2017-04-20T02:34:07.798Z,1.31
2017-04-20T02:34:48.659Z,1.44
2017-04-20T02:35:31.114Z,1.37
2017-04-20T02:36:13.755Z,1.5
2017-04-20T02:36:54.631Z,1.44
2017-04-20T02:37:35.508Z,1.45
2017-04-20T02:38:16.379Z,1.5
2017-04-20T02:38:57.261Z,1.45
2017-04-20T02:39:38.140Z,1.44
2017-04-20T02:40:19.027Z,1.48
2017-04-20T02:40:59.911Z,1.49
2017-04-20T02:41:40.785Z,1.52
2017-04-20T02:42:21.667Z,1.49
2017-04-20T02:43:02.542Z,1.45
2017-04-20T02:43:43.417Z,1.42
2017-04-20T02:44:24.296Z,1.62
2017-04-20T02:45:05.184Z,1.58
2017-04-20T02:45:46.054Z,1.59
2017-04-20T02:46:26.937Z,1.63
2017-04-20T02:47:07.820Z,1.48
2017-04-20T02:47:48.692Z,1.5
2017-04-20T02:48:29.584Z,1.66
2017-04-20T02:49:10.467Z,1.62
2017-04-20T02:49:51.349Z,1.53
2017-04-20T02:50:32.222Z,1.52
2017-04-20T02:51:14.749Z,1.67
2017-04-20T02:51:55.627Z,1.55
2017-04-20T02:52:36.497Z,1.62
2017-04-20T02:53:17.373Z,1.56
2017-04-20T02:53:58.253Z,1.53
2017-04-20T02:54:39.126Z,1.59
2017-04-20T02:55:19.997Z,1.6
2017-04-20T02:56:00.877Z,1.6
2017-04-20T02:56:41.757Z,1.53
2017-04-20T02:57:22.632Z,1.6
2017-04-20T02:58:03.500Z,1.53
2017-04-20T02:58:44.395Z,1.6
2017-04-20T02:59:25.270Z,1.55
2017-04-20T03:00:06.146Z,1.4
2017-04-20T03:00:47.031Z,1.44
2017-04-20T03:01:27.926Z,1.53
2017-04-20T03:02:45.770Z,1.5
2017-04-20T03:03:26.643Z,1.55
2017-04-20T03:04:07.542Z,1.5
2017-04-20T03:04:48.404Z,1.48
2017-04-20T03:05:29.256Z,1.53
2017-04-20T03:06:10.115Z,1.59
2017-04-20T03:06:50.979Z,1.58
2017-04-20T03:07:31.844Z,1.53
2017-04-20T03:08:12.696Z,1.45
2017-04-20T03:08:53.547Z,1.48
2017-04-20T03:09:34.394Z,1.52
2017-04-20T03:10:15.238Z,1.49
2017-04-20T03:10:56.096Z,1.42
2017-04-20T03:11:36.963Z,1.34
2017-04-20T03:12:17.802Z,1.48
2017-04-20T03:12:58.646Z,1.38
2017-04-20T03:13:39.512Z,1.42
2017-04-20T03:14:20.371Z,1.49
2017-04-20T03:15:01.234Z,1.48
2017-04-20T03:15:42.111Z,1.48
2017-04-20T03:16:22.981Z,1.48
2017-04-20T03:17:03.845Z,1.45
2017-04-20T03:17:44.717Z,1.53
2017-04-20T03:18:25.585Z,1.52
2017-04-20T03:19:06.441Z,1.42
2017-04-20T03:19:47.330Z,1.4
2017-04-20T03:20:28.209Z,1.48
2017-04-20T03:21:09.081Z,1.45
2017-04-20T03:21:49.949Z,1.48
2017-04-20T03:22:30.828Z,1.44
2017-04-20T03:23:11.696Z,1.49
2017-04-20T03:23:52.588Z,1.37
2017-04-20T03:24:33.466Z,1.42
2017-04-20T03:25:14.331Z,1.24
2017-04-20T03:25:55.197Z,1.22
2017-04-20T03:26:36.083Z,1.31
2017-04-20T03:27:16.997Z,1.19
2017-04-20T03:27:57.881Z,1.19
2017-04-20T03:29:16.078Z,1.22
2017-04-20T03:29:56.946Z,1.2
2017-04-20T03:32:12.254Z,1.3
2017-04-20T03:32:53.137Z,1.1
2017-04-20T03:33:34.006Z,1.06
2017-04-20T03:34:14.866Z,1.08
2017-04-20T03:34:55.740Z,1.12
2017-04-20T03:35:36.612Z,1.12
2017-04-20T03:36:17.469Z,1.19
2017-04-20T03:36:58.316Z,1.13
2017-04-20T03:37:39.182Z,1.08
2017-04-20T03:38:20.062Z,1.08
2017-04-20T03:39:00.888Z,1.04
2017-04-20T03:39:41.767Z,1.12
2017-04-20T03:40:22.648Z,1.08
2017-04-20T03:41:03.561Z,1.1
2017-04-20T03:43:21.328Z,1.12
2017-04-20T03:44:02.195Z,1.17
2017-04-20T03:46:16.435Z,1.16
2017-04-20T03:46:57.738Z,1.19
2017-04-20T03:49:14.640Z,1.14
2017-04-20T03:57:19.305Z,1.22
2017-04-20T03:58:00.186Z,1.26
2017-04-20T03:58:41.066Z,1.22
2017-04-20T03:59:23.865Z,1.19
2017-04-20T04:00:04.737Z,1.22
2017-04-20T04:00:45.618Z,1.19
2017-04-20T04:01:26.488Z,1.19
2017-04-20T04:02:07.359Z,1.22
2017-04-20T04:02:48.234Z,1.26
2017-04-20T04:03:29.109Z,1.26
2017-04-20T04:04:09.988Z,1.24
2017-04-20T04:04:50.850Z,1.24
2017-04-20T04:05:31.706Z,1.16
2017-04-20T04:06:12.581Z,1.35
2017-04-20T04:06:53.436Z,1.26
2017-04-20T04:07:34.297Z,1.26
2017-04-20T04:08:15.171Z,1.34
2017-04-20T04:08:56.052Z,1.28
2017-04-20T04:09:36.930Z,1.3
2017-04-20T04:10:17.792Z,1.16
2017-04-20T04:10:58.658Z,1.14
2017-04-20T04:11:39.528Z,1.19
2017-04-20T04:12:20.400Z,1.19
2017-04-20T04:13:01.262Z,1.1
2017-04-20T04:13:42.143Z,1.1
2017-04-20T04:14:23.020Z,1.2
2017-04-20T04:15:03.908Z,1.19
2017-04-20T04:18:20.792Z,1.22
2017-04-20T04:20:09.047Z,1.19
2017-04-20T04:20:49.918Z,1.22
2017-04-20T04:21:30.791Z,1.19
2017-04-20T04:22:11.671Z,1.19
2017-04-20T04:22:52.544Z,1.24
2017-04-20T04:23:33.386Z,1.34
2017-04-20T04:24:14.261Z,1.37
2017-04-20T04:24:55.120Z,1.23
2017-04-20T04:25:35.987Z,1.32
2017-04-20T04:26:16.910Z,1.37
2017-04-20T04:27:00.716Z,1.26
2017-04-20T04:27:41.585Z,1.35
2017-04-20T04:28:22.457Z,1.3
2017-04-20T04:29:03.318Z,1.31
2017-04-20T04:29:44.188Z,1.26
2017-04-20T04:30:25.083Z,1.2
2017-04-20T04:31:05.959Z,1.31
2017-04-20T04:31:46.826Z,1.31
2017-04-20T04:32:27.682Z,1.41
2017-04-20T04:33:08.542Z,1.37
2017-04-20T04:33:49.421Z,1.3
2017-04-20T04:34:30.279Z,1.37
2017-04-20T04:35:11.137Z,1.37
2017-04-20T04:35:52.008Z,1.37
2017-04-20T04:38:27.536Z,1.45
2017-04-20T04:39:08.424Z,1.42
2017-04-20T04:39:49.329Z,1.48
2017-04-20T04:40:30.199Z,1.44
2017-04-20T04:41:11.789Z,1.38
2017-04-20T04:41:52.667Z,1.48
2017-04-20T04:42:33.505Z,1.38
2017-04-20T04:43:14.375Z,1.48
2017-04-20T04:43:55.249Z,1.41
2017-04-20T04:44:36.121Z,1.49
2017-04-20T04:45:17.048Z,1.45
2017-04-20T04:45:57.876Z,1.52
2017-04-20T04:49:53.424Z,1.4
2017-04-20T04:50:34.294Z,1.42
2017-04-20T04:51:15.198Z,1.38
2017-04-20T04:51:56.074Z,1.38
2017-04-20T04:52:36.951Z,1.48
2017-04-20T04:53:17.816Z,1.4
2017-04-20T04:59:27.708Z,1.53
2017-04-20T05:00:12.487Z,1.45
2017-04-20T05:00:53.388Z,1.41
2017-04-20T05:01:34.230Z,1.41
2017-04-20T05:02:15.118Z,1.53
2017-04-20T05:02:56.016Z,1.5
2017-04-20T05:03:36.890Z,1.52
2017-04-20T05:04:17.766Z,1.67
2017-04-20T05:04:58.650Z,1.59
2017-04-20T05:05:39.530Z,1.5
2017-04-20T05:06:20.419Z,1.62
2017-04-20T05:08:23.008Z,1.55
2017-04-20T05:09:05.693Z,1.59
2017-04-20T05:09:46.581Z,1.55
2017-04-20T05:10:27.428Z,1.62
2017-04-20T05:11:08.296Z,1.53
2017-04-20T05:11:49.169Z,1.7
2017-04-20T05:12:30.074Z,1.67
2017-04-20T05:13:10.946Z,1.7
2017-04-20T05:13:51.821Z,1.68
2017-04-20T05:14:32.697Z,1.62
2017-04-20T05:15:13.549Z,1.71
2017-04-20T05:15:54.418Z,1.66
2017-04-20T05:16:35.263Z,1.63
2017-04-20T05:17:16.124Z,1.6
2017-04-20T05:17:56.983Z,1.56
2017-04-20T05:18:37.838Z,1.67
2017-04-20T05:19:20.213Z,1.63
2017-04-20T05:20:01.081Z,1.63
2017-04-20T05:20:41.936Z,1.73
2017-04-20T05:21:22.805Z,1.63
2017-04-20T05:22:03.664Z,1.6
2017-04-20T05:22:44.533Z,1.67
2017-04-20T05:23:25.407Z,1.77
2017-04-20T05:24:06.284Z,1.68
2017-04-20T05:24:47.161Z,1.73
2017-04-20T05:25:28.041Z,1.71
2017-04-20T05:26:08.898Z,1.74
2017-04-20T05:26:49.798Z,1.73
2017-04-20T05:27:30.696Z,1.76
2017-04-20T05:28:11.572Z,1.78
2017-04-20T05:28:52.446Z,1.88
2017-04-20T05:29:33.306Z,1.88
2017-04-20T05:30:14.177Z,1.88
2017-04-20T05:30:55.078Z,1.95
2017-04-20T05:31:35.943Z,1.85
2017-04-20T05:32:16.818Z,1.76
2017-04-20T05:32:57.694Z,1.84
2017-04-20T05:33:38.553Z,1.81
2017-04-20T05:34:19.407Z,1.76
2017-04-20T05:35:00.254Z,1.87
2017-04-20T05:35:41.111Z,1.85
2017-04-20T05:36:21.978Z,1.88
2017-04-20T05:37:02.826Z,1.73
2017-04-20T05:37:43.754Z,1.7
2017-04-20T05:38:24.631Z,1.63
2017-04-20T05:39:05.517Z,1.71
2017-04-20T05:39:46.374Z,1.74
2017-04-20T05:40:27.249Z,1.76
2017-04-20T05:41:08.130Z,1.78
2017-04-20T05:41:49.047Z,1.84
2017-04-20T05:42:29.920Z,1.63
2017-04-20T05:43:10.839Z,1.73
2017-04-20T05:43:51.731Z,1.77
2017-04-20T05:44:32.587Z,1.76
2017-04-20T05:45:13.497Z,1.85
2017-04-20T05:45:54.376Z,1.85
2017-04-20T05:46:35.247Z,1.91
2017-04-20T05:47:16.119Z,1.88
2017-04-20T05:47:56.993Z,1.95
2017-04-20T05:48:37.877Z,1.88
2017-04-20T05:49:18.762Z,1.97
2017-04-20T05:49:59.635Z,2
2017-04-20T05:50:40.528Z,1.85
2017-04-20T05:51:21.402Z,1.84
2017-04-20T05:52:05.989Z,1.88
2017-04-20T05:52:46.875Z,1.81
2017-04-20T05:53:28.750Z,1.88
2017-04-20T05:54:09.613Z,1.94
2017-04-20T05:54:52.241Z,1.91
2017-04-20T05:55:34.987Z,2.04
2017-04-20T05:56:15.857Z,2.02
2017-04-20T05:56:56.736Z,2.1
2017-04-20T05:57:37.572Z,2.06
2017-04-20T05:58:18.430Z,2.07
2017-04-20T05:58:59.410Z,2.1
2017-04-20T06:01:15.885Z,2.08
2017-04-20T06:01:56.765Z,2.24
2017-04-20T06:02:39.440Z,2.31
2017-04-20T06:03:20.312Z,2.29
2017-04-20T06:05:09.929Z,2.33
2017-04-20T06:05:53.404Z,2.29
2017-04-20T06:06:34.264Z,2.28
2017-04-20T06:07:15.133Z,2.15
2017-04-20T06:07:56.002Z,2.24
2017-04-20T06:08:36.895Z,2.25
2017-04-20T06:09:17.762Z,2.31
2017-04-20T06:09:58.626Z,2.35
2017-04-20T06:10:39.504Z,2.32
2017-04-20T06:12:46.163Z,2.42
2017-04-20T06:13:27.028Z,2.29
2017-04-20T06:14:07.964Z,2.46
2017-04-20T06:14:48.847Z,2.43
2017-04-20T06:15:29.725Z,2.57
2017-04-20T06:16:10.606Z,2.61
2017-04-20T06:16:51.477Z,2.64
2017-04-20T06:17:32.361Z,2.62
2017-04-20T06:18:13.360Z,2.68
2017-04-20T06:18:54.224Z,2.86
2017-04-20T06:19:35.088Z,2.75
2017-04-20T06:20:15.970Z,2.82
2017-04-20T06:20:56.846Z,2.8
2017-04-20T06:21:37.723Z,2.83
2017-04-20T06:22:18.606Z,2.89
2017-04-20T06:24:06.794Z,2.95
2017-04-20T06:24:47.667Z,3.04
2017-04-20T06:25:28.549Z,2.9
2017-04-20T06:26:09.420Z,2.93
2017-04-20T06:26:50.292Z,3
2017-04-20T06:27:31.171Z,3.01
2017-04-20T06:28:12.051Z,2.95
2017-04-20T06:28:52.938Z,3
2017-04-20T06:29:33.828Z,2.93
2017-04-20T06:30:14.775Z,2.98
2017-04-20T06:30:55.642Z,3.01
2017-04-20T06:31:36.597Z,3.03
2017-04-20T06:32:17.450Z,3.07
2017-04-20T06:32:58.344Z,3.11
2017-04-20T06:33:39.213Z,3.16
2017-04-20T06:34:20.085Z,3.13
2017-04-20T06:35:00.949Z,3.14
2017-04-20T06:38:24.540Z,3.22
2017-04-20T06:39:05.413Z,3.22
2017-04-20T06:39:46.280Z,3.14
2017-04-20T06:40:27.174Z,3.21
2017-04-20T06:41:08.030Z,3.36
2017-04-20T06:41:48.900Z,3.34
2017-04-20T06:42:29.770Z,3.22
2017-04-20T06:43:10.678Z,3.31
2017-04-20T06:43:51.570Z,3.29
2017-04-20T06:44:32.432Z,3.31
2017-04-20T06:45:13.308Z,3.26
2017-04-20T06:45:54.161Z,3.29
2017-04-20T06:46:35.031Z,3.41
2017-04-20T06:47:15.898Z,3.48
2017-04-20T06:47:56.771Z,3.45
2017-04-20T06:48:37.644Z,3.5
2017-04-20T06:49:18.572Z,3.47
2017-04-20T06:49:59.421Z,3.51
2017-04-20T06:50:40.288Z,3.56
2017-04-20T06:51:21.153Z,3.53
2017-04-20T06:52:02.076Z,3.63
2017-04-20T06:52:42.969Z,3.65
2017-04-20T06:53:23.863Z,3.7
2017-04-20T06:54:04.735Z,3.73
2017-04-20T06:54:45.621Z,3.86
2017-04-20T06:55:26.507Z,3.87
2017-04-20T06:56:07.358Z,3.95
2017-04-20T06:56:48.230Z,3.95
2017-04-20T06:57:29.115Z,3.94
2017-04-20T06:58:09.998Z,3.98
2017-04-20T06:58:50.871Z,4.12
2017-04-20T06:59:31.731Z,4.14
2017-04-20T07:00:12.602Z,4.31
2017-04-20T07:00:55.394Z,4.32
2017-04-20T07:01:36.289Z,4.41
2017-04-20T07:02:17.174Z,4.44
2017-04-20T07:02:58.047Z,4.45
2017-04-20T07:05:11.749Z,4.86
2017-04-20T07:05:52.619Z,4.84
2017-04-20T07:06:33.528Z,5.11
2017-04-20T07:07:14.402Z,5.14
2017-04-20T07:07:55.278Z,5.21
2017-04-20T07:08:36.161Z,5.46
2017-04-20T07:09:17.037Z,5.44
2017-04-20T07:09:57.912Z,5.35
2017-04-20T07:10:38.786Z,5.39
2017-04-20T07:11:22.345Z,5.39
2017-04-20T07:12:04.971Z,5.32
2017-04-20T07:12:45.840Z,5.28
2017-04-20T07:13:26.752Z,5.2
2017-04-20T07:14:10.158Z,5.08
2017-04-20T07:14:52.859Z,5.14
2017-04-20T07:15:33.690Z,5.26
2017-04-20T07:16:14.567Z,5.54
2017-04-20T07:16:57.344Z,5.75
2017-04-20T07:20:14.212Z,6.27
2017-04-20T07:20:55.115Z,6.16
2017-04-20T07:25:44.832Z,7.06
2017-04-20T07:26:25.756Z,7.31
2017-04-20T07:27:06.621Z,7.36
2017-04-20T07:27:49.172Z,6.97
2017-04-20T07:28:30.083Z,6.85
2017-04-20T07:29:12.683Z,6.67
2017-04-20T07:29:55.533Z,7.1
2017-04-20T07:30:38.046Z,7.25
2017-04-20T07:31:18.952Z,7.36
2017-04-20T07:33:08.139Z,7.48
2017-04-20T07:33:49.045Z,7.7
2017-04-20T07:34:29.912Z,7.77
2017-04-20T07:35:10.797Z,7.51
2017-04-20T07:35:51.650Z,7.77
2017-04-20T07:36:32.517Z,7.91
2017-04-20T07:37:13.395Z,8.12
2017-04-20T07:37:54.422Z,8.38
2017-04-20T07:40:12.977Z,8.63
2017-04-20T07:40:53.842Z,8.63
2017-04-20T07:41:34.740Z,8.56
2017-04-20T07:42:15.627Z,8.64
2017-04-20T07:42:56.504Z,8.71
2017-04-20T07:43:37.388Z,8.66
2017-04-20T07:44:18.274Z,8.69
2017-04-20T07:44:59.159Z,8.64
2017-04-20T07:45:40.048Z,8.52
2017-04-20T07:46:20.902Z,8.71
2017-04-20T07:47:01.798Z,8.89
2017-04-20T07:47:42.683Z,8.7
2017-04-20T07:48:23.585Z,8.36
2017-04-20T07:49:04.452Z,8.63
2017-04-20T07:49:45.404Z,8.73
2017-04-20T07:50:26.215Z,8.78
2017-04-20T07:51:07.098Z,9.1
2017-04-20T07:51:47.988Z,9.1
2017-04-20T07:52:28.894Z,9.21
2017-04-20T07:53:09.782Z,8.92
2017-04-20T07:53:50.658Z,9.02
2017-04-20T07:54:31.560Z,9.21
2017-04-20T07:55:13.838Z,9.51
2017-04-20T07:55:54.726Z,9.54
2017-04-20T07:56:35.614Z,9.46
2017-04-20T07:57:16.477Z,9.72
2017-04-20T07:57:57.360Z,9.61
2017-04-20T07:58:38.268Z,9.55
2017-04-20T07:59:19.155Z,9.5
2017-04-20T08:00:00.025Z,9.79
2017-04-20T08:00:40.913Z,9.89
2017-04-20T08:01:21.809Z,9.37
2017-04-20T08:02:04.494Z,9.39
2017-04-20T08:02:46.988Z,9.72
2017-04-20T08:03:29.489Z,9.95
2017-04-20T08:04:10.373Z,10.12
2017-04-20T08:04:51.252Z,10.09
2017-04-20T08:05:32.141Z,10.04
2017-04-20T08:06:13.027Z,9.97
2017-04-20T08:06:53.904Z,9.8
2017-04-20T08:07:34.809Z,9.41
2017-04-20T08:08:15.703Z,9.61
2017-04-20T08:08:56.589Z,9.8
2017-04-20T08:09:37.490Z,9.79
2017-04-20T08:10:18.384Z,9.95
2017-04-20T08:10:59.261Z,10.07
2017-04-20T08:11:40.139Z,9.98
2017-04-20T08:12:23.994Z,10.12
2017-04-20T08:13:04.914Z,10.01
2017-04-20T08:13:45.812Z,9.89
2017-04-20T08:14:26.700Z,9.68
2017-04-20T08:15:07.606Z,9.8
2017-04-20T08:15:48.500Z,9.98
2017-04-20T08:16:29.381Z,9.95
2017-04-20T08:17:10.272Z,9.84
2017-04-20T08:17:51.172Z,9.94
2017-04-20T08:18:32.058Z,9.97
2017-04-20T08:19:12.954Z,9.66
2017-04-20T08:19:53.837Z,9.5
2017-04-20T08:21:49.171Z,9.83
2017-04-20T08:22:30.037Z,10.04
2017-04-20T08:23:10.930Z,10.34
2017-04-20T08:23:51.826Z,10.78
2017-04-20T08:24:32.728Z,10.53
2017-04-20T08:25:13.605Z,10.53
2017-04-20T08:25:54.499Z,10.42
2017-04-20T08:26:35.404Z,10.25
2017-04-20T08:27:16.291Z,10.35
2017-04-20T08:27:57.175Z,10.3
2017-04-20T08:28:38.079Z,9.91
2017-04-20T08:29:19.016Z,9.95
2017-04-20T08:29:59.913Z,9.69
2017-04-20T08:30:40.755Z,9.92
2017-04-20T08:31:21.628Z,10.09
2017-04-20T08:32:02.514Z,10.19
2017-04-20T08:32:43.437Z,10.16
2017-04-20T08:33:24.289Z,10.56
2017-04-20T08:34:05.183Z,10.72
2017-04-20T08:34:46.047Z,10.67
2017-04-20T08:35:26.932Z,10.63
2017-04-20T08:36:07.815Z,10.41
2017-04-20T08:36:48.719Z,10.9
2017-04-20T08:37:29.585Z,11.11
2017-04-20T08:38:10.472Z,10.76
2017-04-20T08:38:51.351Z,10.93
2017-04-20T08:39:32.215Z,10.96
2017-04-20T08:40:13.132Z,10.86
2017-04-20T08:40:54.078Z,11.08
2017-04-20T08:41:34.955Z,11.07
2017-04-20T08:42:26.875Z,10.82
2017-04-20T08:45:40.432Z,11.22
2017-04-20T08:46:21.309Z,11.18
2017-04-20T08:47:02.234Z,11.17
2017-04-20T08:47:43.166Z,11.44
2017-04-20T08:48:24.054Z,11.35
2017-04-20T08:49:06.711Z,11.47
2017-04-20T08:49:47.624Z,11.41
2017-04-20T08:50:28.535Z,11.66
2017-04-20T08:52:49.624Z,11.91
2017-04-20T08:53:30.521Z,11.4
2017-04-20T08:54:11.438Z,11.12
2017-04-20T08:55:44.663Z,11.48
2017-04-20T08:56:25.570Z,11.5
2017-04-20T08:57:06.469Z,11.7
2017-04-20T08:57:47.367Z,11.55
2017-04-20T08:58:28.246Z,11.47
2017-04-20T08:59:09.122Z,11.51
2017-04-20T08:59:50.013Z,11.35
2017-04-20T09:00:30.917Z,11.23
2017-04-20T09:01:11.785Z,11.15
2017-04-20T09:01:52.674Z,11.4
2017-04-20T09:02:33.558Z,11.4
2017-04-20T09:03:14.462Z,11.5
2017-04-20T09:03:55.321Z,11.52
2017-04-20T09:04:36.207Z,11.65
2017-04-20T09:05:17.097Z,11.73
2017-04-20T09:05:57.988Z,11.77
2017-04-20T09:06:38.887Z,11.57
2017-04-20T09:07:19.797Z,11.87
2017-04-20T09:08:00.683Z,11.66
2017-04-20T09:08:41.576Z,11.52
2017-04-20T09:09:22.486Z,11.1
2017-04-20T09:10:03.343Z,10.67
2017-04-20T09:10:44.231Z,10.54
2017-04-20T09:11:25.139Z,9.89
2017-04-20T09:12:06.023Z,9.87
2017-04-20T09:12:46.927Z,10.07
2017-04-20T09:13:27.816Z,10.15
2017-04-20T09:14:08.696Z,10.23
2017-04-20T09:14:49.585Z,10.09
2017-04-20T09:15:30.470Z,10.1
2017-04-20T09:16:11.361Z,10.05
2017-04-20T09:16:52.233Z,10.28
2017-04-20T09:17:33.118Z,10.69
2017-04-20T09:18:15.878Z,11.17
2017-04-20T09:18:56.754Z,11.57
2017-04-20T09:19:37.637Z,11.66
2017-04-20T09:20:18.531Z,11.73
2017-04-20T09:20:59.398Z,11.62
2017-04-20T09:21:40.271Z,11.23
2017-04-20T09:22:21.163Z,10.79
2017-04-20T09:23:02.055Z,10.96
2017-04-20T09:23:42.950Z,11.02
2017-04-20T09:24:23.824Z,10.86
2017-04-20T09:25:04.705Z,10.92
2017-04-20T09:25:45.599Z,11
2017-04-20T09:26:26.477Z,11.1
2017-04-20T09:27:54.579Z,10.96
2017-04-20T09:28:35.467Z,10.76
2017-04-20T09:29:16.348Z,10.22
2017-04-20T09:29:57.242Z,10.41
2017-04-20T09:32:10.967Z,11.19
2017-04-20T09:32:51.863Z,11.04
2017-04-20T09:38:29.444Z,12.06
2017-04-20T09:40:13.377Z,11.86
2017-04-20T09:40:56.980Z,11.99
2017-04-20T09:41:37.872Z,11.43
2017-04-20T09:42:18.734Z,11.75
2017-04-20T09:44:22.827Z,12.06
2017-04-20T09:45:03.721Z,12.37
2017-04-20T09:45:44.626Z,12.35
2017-04-20T09:46:25.504Z,11.68
2017-04-20T09:47:06.410Z,11.55
2017-04-20T09:47:47.309Z,11.84
2017-04-20T09:48:28.196Z,11.86
2017-04-20T09:49:09.079Z,12.15
2017-04-20T09:49:50.082Z,12.28
2017-04-20T09:50:30.988Z,12.4
2017-04-20T09:51:11.882Z,12.36
2017-04-20T09:51:52.770Z,12.46
2017-04-20T09:52:33.675Z,12.4
2017-04-20T09:53:15.413Z,12.39
2017-04-20T09:53:56.307Z,12.1
2017-04-20T09:54:37.259Z,11.83
2017-04-20T09:55:19.748Z,11.87
2017-04-20T09:56:00.634Z,11.7
2017-04-20T09:56:41.521Z,11.87
2017-04-20T09:58:36.173Z,11.62
2017-04-20T09:59:17.065Z,11.5
2017-04-20T09:59:57.949Z,11.69
2017-04-20T10:01:26.186Z,11.57
2017-04-20T10:02:07.107Z,11.73
2017-04-20T10:02:48.002Z,11.88
2017-04-20T10:03:28.891Z,12.17
2017-04-20T10:04:09.763Z,12.22
2017-04-20T10:04:50.668Z,12.15
2017-04-20T10:05:31.564Z,11.81
2017-04-20T10:06:12.465Z,11.68
2017-04-20T10:06:53.346Z,11.77
2017-04-20T10:07:34.283Z,12.12
2017-04-20T10:08:15.193Z,12.27
2017-04-20T10:08:56.083Z,12.24
2017-04-20T10:09:36.966Z,11.81
2017-04-20T10:10:17.918Z,12.06
2017-04-20T10:10:58.817Z,12.04
2017-04-20T10:11:39.696Z,12.06
2017-04-20T10:12:20.590Z,12.18
2017-04-20T10:13:01.508Z,12.35
2017-04-20T10:13:42.380Z,12.31
2017-04-20T10:14:23.278Z,12.25